Time;durP1;ratioP1;P1;durP2;ratioP2;P2;SDS_P1;SDS_P2;PMS_P1;PMS_P2;Temp;Humidity;BMP_temperature;BMP_pressure;BME280_temperature;BME280_humidity;BME280_pressure;Samples;Min_cycle;Max_cycle;Signal;HPM_P1;HPM_P2
2021/09/03 00:00:11;;;;;;;9.70;8.40;;;;;;;15.04;82.73;101583.97;682544;28;4627;-84
2021/09/03 00:00:31;;;;;;;10.40;8.52;;;;;;;15.08;82.48;101580.41;682809;28;1642;-84
2021/09/03 00:00:51;;;;;;;9.50;8.35;;;;;;;15.09;82.38;101577.78;677220;29;1878;-84
2021/09/03 00:01:12;;;;;;;10.03;8.33;;;;;;;15.12;82.44;101585.63;679074;29;986;-84
2021/09/03 00:01:32;;;;;;;10.00;8.37;;;;;;;15.15;81.97;101585.59;677515;29;1770;-84
2021/09/03 00:01:53;;;;;;;9.88;8.25;;;;;;;15.10;82.78;101582.13;674104;29;1686;-84
2021/09/03 00:02:13;;;;;;;10.20;8.30;;;;;;;15.05;82.65;101583.06;675322;29;1498;-84
2021/09/03 00:02:36;;;;;;;10.27;8.23;;;;;;;15.09;82.42;101582.16;677448;29;1336;-84
2021/09/03 00:02:56;;;;;;;9.85;8.57;;;;;;;15.11;82.22;101580.38;676748;29;4397;-84
2021/09/03 00:03:19;;;;;;;10.03;8.30;;;;;;;14.98;82.48;101576.97;676646;29;1502;-84
2021/09/03 00:03:39;;;;;;;11.68;8.80;;;;;;;14.93;82.85;101584.91;672235;29;1380;-84
2021/09/03 00:04:01;;;;;;;9.87;8.50;;;;;;;15.00;82.78;101590.16;674443;29;1090;-84
2021/09/03 00:04:21;;;;;;;11.10;8.63;;;;;;;15.00;82.76;101588.38;674581;29;1157;-85
2021/09/03 00:04:45;;;;;;;9.87;8.37;;;;;;;15.03;82.33;101579.59;677364;29;1240;-84
2021/09/03 00:05:08;;;;;;;9.60;8.43;;;;;;;15.04;82.29;101582.19;676987;29;3806;-84
2021/09/03 00:05:29;;;;;;;9.63;8.35;;;;;;;15.02;82.34;101594.47;677140;29;1806;-84
2021/09/03 00:05:50;;;;;;;9.75;8.48;;;;;;;14.91;82.70;101591.06;673859;29;4517;-84
2021/09/03 00:06:10;;;;;;;10.10;8.37;;;;;;;14.88;82.96;101585.84;678070;29;1671;-84
2021/09/03 00:06:31;;;;;;;10.15;8.35;;;;;;;14.85;82.82;101591.13;677086;29;1319;-84
2021/09/03 00:06:52;;;;;;;10.15;8.20;;;;;;;14.84;83.52;101587.59;677417;29;1666;-84
2021/09/03 00:07:12;;;;;;;9.50;7.80;;;;;;;14.86;83.26;101596.38;678223;29;1868;-84
2021/09/03 00:07:33;;;;;;;9.02;8.00;;;;;;;14.90;83.08;101584.09;674467;29;1281;-84
2021/09/03 00:07:53;;;;;;;9.73;8.20;;;;;;;14.91;83.02;101593.69;674744;29;1260;-84
2021/09/03 00:08:13;;;;;;;11.65;8.60;;;;;;;14.94;82.86;101588.44;678870;29;1952;-85
2021/09/03 00:08:34;;;;;;;9.83;8.53;;;;;;;14.94;82.76;101585.81;677044;29;1302;-84
2021/09/03 00:08:54;;;;;;;10.70;8.60;;;;;;;14.95;82.84;101585.78;675395;29;4384;-85
2021/09/03 00:09:15;;;;;;;10.23;8.48;;;;;;;14.90;82.96;101586.72;674536;29;1267;-85
2021/09/03 00:09:35;;;;;;;9.83;8.47;;;;;;;14.79;82.68;101584.16;677669;29;1219;-84
2021/09/03 00:09:56;;;;;;;10.32;8.25;;;;;;;14.77;83.18;101585.91;674905;29;1389;-84
2021/09/03 00:10:18;;;;;;;9.57;8.33;;;;;;;14.82;83.41;101587.63;678826;29;1171;-84
2021/09/03 00:10:39;;;;;;;11.27;8.40;;;;;;;14.86;83.05;101587.63;677290;29;1421;-84
2021/09/03 00:10:59;;;;;;;10.30;8.60;;;;;;;14.87;82.89;101584.97;677643;29;1021;-85
2021/09/03 00:11:19;;;;;;;9.80;8.80;;;;;;;14.91;82.40;101591.06;678617;29;1292;-83
2021/09/03 00:11:40;;;;;;;9.70;8.70;;;;;;;14.93;82.37;101586.69;679929;29;1508;-84
2021/09/03 00:12:01;;;;;;;10.05;8.15;;;;;;;14.94;82.70;101585.81;673990;29;4418;-84
2021/09/03 00:12:23;;;;;;;9.57;8.40;;;;;;;14.96;82.31;101584.88;673082;29;1121;-84
2021/09/03 00:12:43;;;;;;;11.07;8.40;;;;;;;15.02;82.44;101606.78;677480;29;1527;-84
2021/09/03 00:13:03;;;;;;;11.13;8.47;;;;;;;15.02;82.34;101588.34;680052;29;1609;-84
2021/09/03 00:13:26;;;;;;;10.87;8.33;;;;;;;15.00;82.18;101585.75;675070;29;1512;-84
2021/09/03 00:13:46;;;;;;;10.00;8.20;;;;;;;15.05;82.30;101585.69;675217;29;1261;-83
2021/09/03 00:14:07;;;;;;;11.02;8.52;;;;;;;15.05;82.01;101583.94;675267;29;1339;-85
2021/09/03 00:14:27;;;;;;;11.07;8.40;;;;;;;15.03;81.58;101588.34;675305;29;799;-84
2021/09/03 00:14:50;;;;;;;10.80;8.10;;;;;;;15.05;81.78;101589.22;676498;29;4449;-84
2021/09/03 00:15:12;;;;;;;11.50;8.00;;;;;;;15.04;81.93;101591.88;677201;29;1272;-84
2021/09/03 00:15:33;;;;;;;9.63;8.13;;;;;;;14.96;82.34;101592.78;671981;29;1306;-84
2021/09/03 00:15:54;;;;;;;10.30;8.90;;;;;;;14.96;82.64;101590.16;676382;29;1709;-84
2021/09/03 00:16:18;;;;;;;10.73;8.90;;;;;;;14.98;82.30;101585.75;679258;29;1162;-84
2021/09/03 00:16:38;;;;;;;9.68;8.55;;;;;;;15.01;82.05;101592.75;680822;29;1495;-84
2021/09/03 00:16:59;;;;;;;10.70;8.05;;;;;;;15.00;81.80;101584.88;674524;29;1245;-84
2021/09/03 00:17:20;;;;;;;11.00;8.30;;;;;;;15.03;81.97;101590.09;674597;29;1426;-84
2021/09/03 00:17:41;;;;;;;11.20;8.30;;;;;;;15.02;81.89;101581.31;675974;29;3200;-84
2021/09/03 00:18:02;;;;;;;10.25;8.40;;;;;;;15.03;81.75;101583.06;677201;29;4449;-83
2021/09/03 00:18:23;;;;;;;10.30;8.48;;;;;;;15.04;81.80;101597.13;677552;29;1500;-84
2021/09/03 00:18:45;;;;;;;10.00;8.27;;;;;;;14.98;81.99;101588.38;675178;29;1098;-84
2021/09/03 00:19:06;;;;;;;10.40;8.35;;;;;;;14.96;81.95;101589.28;677238;29;1412;-84
2021/09/03 00:19:26;;;;;;;10.35;8.30;;;;;;;14.97;81.97;101586.63;677707;29;1488;-84
2021/09/03 00:19:47;;;;;;;10.02;8.10;;;;;;;14.92;82.39;101588.41;677573;29;1483;-85
2021/09/03 00:20:10;;;;;;;10.73;8.10;;;;;;;14.95;82.25;101588.41;677325;29;934;-85
2021/09/03 00:20:30;;;;;;;10.65;8.50;;;;;;;14.96;82.36;101590.16;676453;29;2290;-84
2021/09/03 00:20:51;;;;;;;10.77;8.40;;;;;;;14.96;81.83;101587.50;680596;29;4368;-84
2021/09/03 00:21:11;;;;;;;10.52;8.20;;;;;;;14.97;81.74;101593.66;679714;28;1165;-84
2021/09/03 00:21:31;;;;;;;9.80;8.13;;;;;;;14.96;81.64;101587.50;675741;29;1701;-84
2021/09/03 00:21:52;;;;;;;10.38;8.25;;;;;;;14.95;81.86;101588.41;680152;29;1269;-84
2021/09/03 00:22:13;;;;;;;11.10;8.45;;;;;;;14.94;81.72;101586.66;680304;29;1322;-83
2021/09/03 00:22:33;;;;;;;9.47;8.10;;;;;;;14.96;81.71;101581.38;675017;29;1384;-84
2021/09/03 00:22:54;;;;;;;9.67;8.37;;;;;;;14.91;82.01;101586.69;677880;29;1191;-85
2021/09/03 00:23:14;;;;;;;10.00;8.50;;;;;;;14.90;82.13;101584.94;676554;29;983;-84
2021/09/03 00:23:34;;;;;;;10.07;8.30;;;;;;;14.91;81.96;101589.34;675828;29;4405;-84
2021/09/03 00:23:55;;;;;;;10.80;8.07;;;;;;;14.92;81.80;101590.19;674335;29;4400;-84
2021/09/03 00:24:17;;;;;;;11.23;8.60;;;;;;;14.93;81.69;101590.19;676282;29;1349;-84
2021/09/03 00:24:38;;;;;;;11.32;8.40;;;;;;;14.93;81.82;101595.44;677911;29;1000;-84
2021/09/03 00:24:58;;;;;;;10.47;8.20;;;;;;;14.95;81.70;101588.41;676945;29;1462;-84
2021/09/03 00:25:18;;;;;;;10.77;8.32;;;;;;;14.94;81.62;101594.56;674776;29;1230;-84
2021/09/03 00:25:39;;;;;;;10.40;8.40;;;;;;;14.92;82.06;101582.28;674373;29;1492;-85
2021/09/03 00:26:00;;;;;;;10.18;8.35;;;;;;;14.88;82.60;101589.34;674328;29;1944;-84
2021/09/03 00:26:20;;;;;;;10.77;8.53;;;;;;;14.90;82.13;101600.75;672372;29;1194;-84
2021/09/03 00:26:43;;;;;;;11.20;8.35;;;;;;;14.91;81.88;101586.69;675339;29;4281;-84
2021/09/03 00:27:03;;;;;;;10.52;8.27;;;;;;;14.90;82.16;101590.22;675497;29;4576;-84
2021/09/03 00:27:23;;;;;;;9.73;8.20;;;;;;;14.79;82.30;101585.03;675472;29;1396;-84
2021/09/03 00:27:44;;;;;;;11.17;8.43;;;;;;;14.65;82.76;101589.53;680278;29;1423;-84
2021/09/03 00:28:04;;;;;;;10.20;8.68;;;;;;;14.59;83.15;101595.69;682175;29;1526;-83
2021/09/03 00:28:25;;;;;;;10.23;8.40;;;;;;;14.60;83.02;101592.13;677317;29;1161;-84
2021/09/03 00:28:47;;;;;;;10.63;8.60;;;;;;;14.56;83.80;101594.81;674916;29;1390;-84
2021/09/03 00:29:08;;;;;;;10.30;8.57;;;;;;;14.47;84.23;101590.50;679630;29;1201;-84
2021/09/03 00:29:28;;;;;;;10.43;8.43;;;;;;;14.51;83.71;101591.31;679321;29;2689;-84
2021/09/03 00:29:49;;;;;;;9.93;8.10;;;;;;;14.58;83.79;101588.66;681382;29;4376;-84
2021/09/03 00:30:10;;;;;;;10.70;8.20;;;;;;;14.61;83.75;101593.88;676612;29;1165;-84
2021/09/03 00:30:30;;;;;;;10.18;8.73;;;;;;;14.55;84.56;101591.31;679781;28;1308;-84
2021/09/03 00:30:51;;;;;;;10.73;8.55;;;;;;;14.55;83.99;101583.41;672295;29;1475;-84
2021/09/03 00:31:11;;;;;;;10.63;8.07;;;;;;;14.59;84.00;101585.16;671006;29;1212;-84
2021/09/03 00:31:31;;;;;;;11.45;8.38;;;;;;;14.64;83.39;101588.63;670413;29;1283;-84
2021/09/03 00:31:52;;;;;;;11.70;8.77;;;;;;;14.68;83.07;101591.28;675018;29;1657;-84
2021/09/03 00:32:12;;;;;;;10.60;8.53;;;;;;;14.68;82.81;101584.22;677726;29;1515;-85
2021/09/03 00:32:33;;;;;;;10.40;8.43;;;;;;;14.69;83.31;101590.34;677199;29;2488;-84
2021/09/03 00:32:53;;;;;;;11.00;8.50;;;;;;;14.60;83.28;101592.13;676982;29;4390;-84
2021/09/03 00:33:14;;;;;;;11.00;8.77;;;;;;;14.56;83.38;101586.91;675158;29;871;-83
2021/09/03 00:33:34;;;;;;;10.90;8.87;;;;;;;14.50;84.13;101600.13;677753;29;1441;-84
2021/09/03 00:33:54;;;;;;;11.00;9.10;;;;;;;14.47;84.38;101585.22;677951;29;1646;-84
2021/09/03 00:34:15;;;;;;;10.83;8.50;;;;;;;14.42;84.72;101587.00;677340;29;1189;-84
2021/09/03 00:34:35;;;;;;;9.73;8.30;;;;;;;14.35;85.23;101593.19;680097;29;1296;-84
2021/09/03 00:34:55;;;;;;;11.27;8.27;;;;;;;14.36;84.85;101587.91;683115;29;909;-84
2021/09/03 00:35:16;;;;;;;10.17;8.33;;;;;;;14.45;84.35;101586.97;682935;29;1977;-84
2021/09/03 00:35:36;;;;;;;10.02;8.20;;;;;;;14.36;84.92;101587.91;681037;29;4047;-84
2021/09/03 00:35:56;;;;;;;10.50;8.47;;;;;;;14.30;84.95;101587.94;680463;29;4321;-84
2021/09/03 00:36:17;;;;;;;10.73;8.27;;;;;;;14.27;84.89;101582.69;676667;29;986;-84
2021/09/03 00:36:37;;;;;;;9.77;8.13;;;;;;;14.30;85.07;101583.56;682912;29;1476;-84
2021/09/03 00:36:58;;;;;;;10.07;8.27;;;;;;;14.30;85.79;101582.66;678196;29;1040;-84
2021/09/03 00:37:18;;;;;;;10.85;8.80;;;;;;;14.24;85.79;101588.84;678044;29;1293;-84
2021/09/03 00:37:39;;;;;;;9.57;8.10;;;;;;;14.26;85.56;101584.47;674664;29;1779;-84
2021/09/03 00:37:59;;;;;;;9.23;7.90;;;;;;;14.34;84.86;101584.41;675203;29;1935;-84
2021/09/03 00:38:19;;;;;;;9.97;8.53;;;;;;;14.41;84.54;101590.50;674492;29;1920;-83
2021/09/03 00:38:40;;;;;;;11.38;8.73;;;;;;;14.41;84.56;101579.97;676077;29;4409;-84
2021/09/03 00:39:00;;;;;;;12.00;8.77;;;;;;;14.40;84.53;101588.75;679359;29;4338;-83
2021/09/03 00:39:20;;;;;;;10.00;8.30;;;;;;;14.40;84.65;101579.13;677497;29;1439;-84
2021/09/03 00:39:41;;;;;;;9.60;8.33;;;;;;;14.44;84.44;101579.97;677775;29;1410;-84
2021/09/03 00:40:02;;;;;;;9.87;8.30;;;;;;;14.49;83.90;101583.44;677279;29;1696;-84
2021/09/03 00:40:22;;;;;;;9.88;8.18;;;;;;;14.50;83.70;101590.47;674933;29;1294;-84
2021/09/03 00:40:43;;;;;;;10.33;8.00;;;;;;;14.53;83.81;101590.44;675648;29;1277;-84
2021/09/03 00:41:03;;;;;;;9.35;8.35;;;;;;;14.57;83.41;101584.28;677193;29;1790;-84
2021/09/03 00:41:24;;;;;;;9.97;8.60;;;;;;;14.58;83.27;101588.66;677716;29;4010;-84
2021/09/03 00:41:45;;;;;;;10.02;8.52;;;;;;;14.59;83.33;101579.88;671861;29;4387;-84
2021/09/03 00:42:10;;;;;;;11.00;8.15;;;;;;;14.50;83.87;101582.56;672178;29;1914;-84
2021/09/03 00:42:30;;;;;;;10.43;8.60;;;;;;;14.39;84.65;101581.75;674851;29;1431;-84
2021/09/03 00:42:51;;;;;;;11.77;8.80;;;;;;;14.33;84.99;101590.56;681154;29;2197;-84
2021/09/03 00:43:11;;;;;;;10.20;9.05;;;;;;;14.30;84.98;101583.56;677529;29;1419;-84
2021/09/03 00:43:31;;;;;;;9.67;8.60;;;;;;;14.25;84.99;101584.47;678130;29;1377;-84
2021/09/03 00:43:52;;;;;;;9.48;8.32;;;;;;;14.20;85.72;101587.09;671847;29;1581;-84
2021/09/03 00:44:12;;;;;;;10.60;8.30;;;;;;;14.17;86.25;101581.88;671754;29;3235;-84
2021/09/03 00:44:33;;;;;;;10.17;8.10;;;;;;;14.16;85.56;101577.47;674280;29;2626;-84
2021/09/03 00:44:53;;;;;;;10.10;8.18;;;;;;;14.24;84.97;101588.84;676748;29;4368;-84
2021/09/03 00:45:14;;;;;;;9.37;8.20;;;;;;;14.26;85.06;101592.34;677224;29;1289;-84
2021/09/03 00:45:34;;;;;;;10.57;8.60;;;;;;;14.25;86.20;101584.47;674420;29;1527;-84
2021/09/03 00:45:56;;;;;;;10.98;8.60;;;;;;;14.20;85.93;101581.84;673345;29;1915;-84
2021/09/03 00:46:17;;;;;;;11.30;8.88;;;;;;;14.13;86.67;101578.38;682863;29;1325;-84
2021/09/03 00:46:37;;;;;;;10.60;8.83;;;;;;;14.13;86.14;101582.78;680351;29;1316;-84
2021/09/03 00:46:57;;;;;;;10.45;8.27;;;;;;;14.20;85.24;101581.84;680390;29;1634;-84
2021/09/03 00:47:18;;;;;;;10.20;8.23;;;;;;;14.16;86.00;101574.84;679005;29;2642;-84
2021/09/03 00:47:38;;;;;;;9.68;8.43;;;;;;;14.11;85.82;101581.91;678659;29;3111;-84
2021/09/03 00:47:59;;;;;;;10.40;8.60;;;;;;;14.05;85.99;101572.31;676206;29;4365;-83
2021/09/03 00:48:19;;;;;;;12.13;9.15;;;;;;;14.02;85.87;101574.06;680001;29;1298;-84
2021/09/03 00:48:40;;;;;;;10.43;8.33;;;;;;;14.08;85.85;101568.75;679350;29;1211;-85
2021/09/03 00:49:00;;;;;;;10.03;8.40;;;;;;;14.09;86.08;101578.41;677694;29;1415;-84
2021/09/03 00:49:21;;;;;;;11.27;9.10;;;;;;;14.06;85.57;101574.03;677084;29;1097;-84
2021/09/03 00:49:41;;;;;;;12.57;8.43;;;;;;;14.11;85.68;101581.91;677166;29;1233;-84
2021/09/03 00:50:03;;;;;;;11.10;8.20;;;;;;;14.19;85.27;101576.59;677433;29;1097;-83
2021/09/03 00:50:24;;;;;;;9.80;8.27;;;;;;;14.20;85.54;101570.47;677857;29;3578;-84
2021/09/03 00:50:45;;;;;;;9.63;8.50;;;;;;;14.12;86.12;101575.75;677263;29;4429;-84
2021/09/03 00:51:05;;;;;;;9.93;8.48;;;;;;;14.05;86.40;101581.94;679050;29;1028;-84
2021/09/03 00:51:26;;;;;;;10.87;8.60;;;;;;;13.99;86.75;101579.34;680326;29;1115;-84
2021/09/03 00:51:47;;;;;;;11.77;8.30;;;;;;;13.89;86.96;101571.47;682868;29;1245;-84
2021/09/03 00:52:08;;;;;;;9.75;8.25;;;;;;;13.85;86.66;101577.63;682482;29;1427;-84
2021/09/03 00:52:29;;;;;;;9.63;8.60;;;;;;;13.87;86.47;101582.88;680413;29;1355;-84
2021/09/03 00:52:49;;;;;;;9.70;8.30;;;;;;;13.96;86.19;101577.59;680383;29;1304;-84
2021/09/03 00:53:10;;;;;;;9.77;8.52;;;;;;;14.07;86.06;101585.44;674399;29;3400;-84
2021/09/03 00:53:32;;;;;;;10.20;8.33;;;;;;;14.11;85.38;101582.78;677289;29;1432;-85
2021/09/03 00:53:52;;;;;;;9.55;8.10;;;;;;;14.14;84.95;101576.63;676478;29;4357;-84
2021/09/03 00:54:12;;;;;;;10.30;8.20;;;;;;;14.17;85.38;101576.63;677471;29;1554;-84
2021/09/03 00:54:33;;;;;;;9.63;7.90;;;;;;;14.23;85.01;101583.59;677692;29;1251;-84
2021/09/03 00:54:58;;;;;;;10.95;8.05;;;;;;;14.23;84.80;101581.84;679949;29;1700;-84
2021/09/03 00:55:18;;;;;;;11.50;8.68;;;;;;;14.08;85.27;101582.81;677333;29;1182;-84
2021/09/03 00:55:39;;;;;;;10.85;8.18;;;;;;;14.02;85.61;101581.94;677702;29;991;-84
2021/09/03 00:55:59;;;;;;;9.33;8.33;;;;;;;13.95;85.43;101581.09;675341;29;1359;-84
2021/09/03 00:56:20;;;;;;;9.73;8.20;;;;;;;13.99;85.63;101581.97;679990;29;2159;-84
2021/09/03 00:56:40;;;;;;;10.80;8.32;;;;;;;13.96;85.83;101586.34;677564;29;1393;-84
2021/09/03 00:57:02;;;;;;;10.90;8.70;;;;;;;13.94;85.67;101580.22;676533;29;4394;-84
2021/09/03 00:57:24;;;;;;;10.32;8.27;;;;;;;13.96;85.83;101578.47;674915;29;1471;-84
2021/09/03 00:57:44;;;;;;;9.60;8.25;;;;;;;14.03;85.71;101576.69;677554;29;1033;-83
2021/09/03 00:58:06;;;;;;;9.57;8.20;;;;;;;14.05;85.25;101587.19;677805;29;1133;-84
2021/09/03 00:58:26;;;;;;;11.35;8.63;;;;;;;14.08;85.32;101581.91;679577;29;1277;-84
2021/09/03 00:58:47;;;;;;;10.47;8.80;;;;;;;14.09;85.03;101583.66;680349;29;979;-84
2021/09/03 00:59:07;;;;;;;10.32;8.60;;;;;;;14.10;84.74;101580.16;682120;28;1332;-84
2021/09/03 00:59:28;;;;;;;9.60;8.60;;;;;;;14.12;84.77;101583.63;674342;29;4306;-84
2021/09/03 00:59:53;;;;;;;9.90;8.52;;;;;;;14.05;85.12;101582.81;676986;29;4449;-85
2021/09/03 01:00:14;;;;;;;9.55;8.20;;;;;;;13.91;85.68;101580.22;677396;29;1317;-83
2021/09/03 01:00:34;;;;;;;9.70;8.68;;;;;;;13.90;86.05;101582.84;677807;29;1190;-84
2021/09/03 01:00:55;;;;;;;10.13;8.68;;;;;;;13.89;86.36;101586.41;680501;29;1240;-84
2021/09/03 01:01:17;;;;;;;10.53;8.37;;;;;;;13.88;86.03;101577.63;679877;29;1297;-84
2021/09/03 01:01:38;;;;;;;9.20;8.18;;;;;;;13.89;86.27;101586.41;678056;29;1331;-84
2021/09/03 01:01:59;;;;;;;9.20;8.20;;;;;;;13.85;86.60;101579.41;677415;29;1249;-84
2021/09/03 01:02:20;;;;;;;9.75;8.25;;;;;;;13.78;86.82;101579.41;677771;29;2508;-84
2021/09/03 01:02:41;;;;;;;11.18;9.13;;;;;;;13.74;87.39;101582.06;676652;29;1606;-83
2021/09/03 01:03:01;;;;;;;11.50;8.80;;;;;;;13.74;86.95;101587.31;676496;29;4353;-84
2021/09/03 01:03:21;;;;;;;11.35;8.20;;;;;;;13.76;87.13;101573.28;677857;29;1349;-84
2021/09/03 01:03:42;;;;;;;10.87;8.60;;;;;;;13.77;86.80;101579.41;675040;29;1171;-84
2021/09/03 01:04:03;;;;;;;9.20;8.18;;;;;;;13.77;86.53;101584.66;675133;29;976;-84
2021/09/03 01:04:23;;;;;;;9.68;8.10;;;;;;;13.74;86.89;101590.81;677894;29;1005;-84
2021/09/03 01:04:43;;;;;;;11.50;8.23;;;;;;;13.70;87.09;101581.19;677790;29;1116;-84
2021/09/03 01:05:05;;;;;;;9.57;8.13;;;;;;;13.66;86.89;101576.81;678027;29;2547;-84
2021/09/03 01:05:25;;;;;;;9.55;8.55;;;;;;;13.68;86.94;101582.94;674325;29;2721;-84
2021/09/03 01:05:46;;;;;;;9.70;8.37;;;;;;;13.68;87.14;101582.94;672265;29;4383;-84
2021/09/03 01:06:07;;;;;;;10.40;8.20;;;;;;;13.71;86.95;101575.06;679218;29;1989;-85
2021/09/03 01:06:28;;;;;;;9.88;8.50;;;;;;;13.74;86.57;101572.41;678975;29;1063;-84
2021/09/03 01:06:48;;;;;;;9.50;8.32;;;;;;;13.81;86.35;101578.53;679142;29;1181;-85
2021/09/03 01:07:11;;;;;;;9.43;8.20;;;;;;;13.84;86.18;101575.00;678829;29;1268;-84
2021/09/03 01:07:31;;;;;;;9.93;8.38;;;;;;;13.75;86.33;101581.19;678820;29;925;-84
2021/09/03 01:07:52;;;;;;;9.63;8.50;;;;;;;13.68;87.11;101584.69;673464;29;1277;-84
2021/09/03 01:08:12;;;;;;;9.40;8.40;;;;;;;13.61;86.83;101578.59;679241;29;2050;-84
2021/09/03 01:08:33;;;;;;;9.98;8.60;;;;;;;13.55;87.12;101576.84;676310;29;1205;-85
2021/09/03 01:08:53;;;;;;;9.67;8.67;;;;;;;13.50;87.37;101573.38;672031;29;4593;-84
2021/09/03 01:09:13;;;;;;;10.93;9.07;;;;;;;13.47;87.72;101581.22;673549;29;959;-84
2021/09/03 01:09:34;;;;;;;11.27;8.90;;;;;;;13.50;87.70;101576.00;673652;29;928;-84
2021/09/03 01:09:54;;;;;;;10.40;8.37;;;;;;;13.55;87.75;101589.97;673404;29;857;-84
2021/09/03 01:10:18;;;;;;;9.93;8.48;;;;;;;13.57;87.27;101572.47;673085;29;1347;-84
2021/09/03 01:10:39;;;;;;;10.20;8.32;;;;;;;13.60;87.11;101576.84;674671;29;877;-85
2021/09/03 01:11:00;;;;;;;9.50;8.40;;;;;;;13.66;86.82;101578.56;675170;29;2504;-84
2021/09/03 01:11:20;;;;;;;9.27;8.27;;;;;;;13.69;86.60;101573.31;676031;29;4123;-84
2021/09/03 01:11:41;;;;;;;9.80;8.40;;;;;;;13.63;86.89;101575.06;672121;29;1289;-84
2021/09/03 01:12:01;;;;;;;10.68;8.50;;;;;;;13.57;86.66;101577.72;671405;29;4373;-84
2021/09/03 01:12:22;;;;;;;11.70;8.47;;;;;;;13.48;87.69;101569.84;673411;29;1551;-84
2021/09/03 01:12:43;;;;;;;11.38;8.75;;;;;;;13.45;87.93;101580.38;671086;29;1253;-84
2021/09/03 01:13:04;;;;;;;10.25;8.63;;;;;;;13.45;87.37;101569.88;673321;29;1129;-84
2021/09/03 01:13:24;;;;;;;9.55;8.25;;;;;;;13.46;87.57;101566.38;673623;29;941;-84
2021/09/03 01:13:45;;;;;;;10.43;8.60;;;;;;;13.49;87.52;101565.50;673918;29;1255;-84
2021/09/03 01:14:05;;;;;;;10.03;8.27;;;;;;;13.50;87.50;101575.09;673052;29;1810;-84
2021/09/03 01:14:26;;;;;;;9.50;8.50;;;;;;;13.51;87.45;101569.84;671765;29;1293;-84
2021/09/03 01:14:46;;;;;;;10.30;8.83;;;;;;;13.50;87.58;101576.00;670377;29;4405;-84
2021/09/03 01:15:07;;;;;;;10.17;8.77;;;;;;;13.47;87.79;101573.34;673649;29;1128;-84
2021/09/03 01:15:30;;;;;;;9.45;8.45;;;;;;;13.45;87.93;101575.97;678295;29;1171;-84
2021/09/03 01:15:50;;;;;;;9.30;8.30;;;;;;;13.48;87.81;101576.88;680883;29;1439;-84
2021/09/03 01:16:10;;;;;;;10.05;8.50;;;;;;;13.50;87.25;101577.72;681414;29;1597;-84
2021/09/03 01:16:31;;;;;;;9.93;8.70;;;;;;;13.49;87.56;101571.59;681465;29;804;-84
2021/09/03 01:16:51;;;;;;;9.75;8.68;;;;;;;13.53;87.14;101572.50;675450;29;2642;-84
2021/09/03 01:17:12;;;;;;;9.90;8.37;;;;;;;13.60;86.86;101575.06;673994;29;2141;-85
2021/09/03 01:17:33;;;;;;;9.80;8.10;;;;;;;13.65;86.88;101574.19;673324;29;1209;-84
2021/09/03 01:17:54;;;;;;;9.18;8.13;;;;;;;13.66;86.43;101578.56;675462;29;4377;-84
2021/09/03 01:18:14;;;;;;;10.93;8.40;;;;;;;13.65;86.33;101582.94;676998;29;1267;-84
2021/09/03 01:18:34;;;;;;;10.27;8.50;;;;;;;13.70;86.24;101570.66;678968;29;865;-84
2021/09/03 01:18:55;;;;;;;9.77;8.30;;;;;;;13.73;86.14;101567.16;675988;29;1386;-84
2021/09/03 01:19:15;;;;;;;9.50;8.13;;;;;;;13.74;85.86;101571.53;670873;29;1285;-84
2021/09/03 01:19:35;;;;;;;9.67;8.27;;;;;;;13.74;85.86;101569.78;671301;29;846;-84
2021/09/03 01:19:56;;;;;;;10.10;8.13;;;;;;;13.74;85.74;101576.81;673414;29;1237;-84
2021/09/03 01:20:16;;;;;;;10.40;8.45;;;;;;;13.79;85.85;101575.03;676909;29;4055;-84
2021/09/03 01:20:37;;;;;;;10.33;8.70;;;;;;;13.77;85.32;101566.28;676622;29;1174;-84
2021/09/03 01:20:57;;;;;;;10.77;8.30;;;;;;;13.72;85.62;101566.31;675888;29;4593;-84
2021/09/03 01:21:18;;;;;;;11.03;8.57;;;;;;;13.62;86.01;101573.34;671746;29;1119;-84
2021/09/03 01:21:38;;;;;;;10.23;8.90;;;;;;;13.54;86.69;101572.47;674304;29;1182;-85
2021/09/03 01:21:58;;;;;;;10.00;8.57;;;;;;;13.47;86.65;101577.75;675828;29;1216;-84
2021/09/03 01:22:21;;;;;;;10.05;8.60;;;;;;;13.42;86.82;101569.88;678445;29;1388;-84
2021/09/03 01:22:42;;;;;;;9.43;8.38;;;;;;;13.44;86.94;101573.38;676085;29;1350;-84
2021/09/03 01:23:03;;;;;;;9.80;8.57;;;;;;;13.42;87.06;101576.00;672815;29;2740;-84
2021/09/03 01:23:23;;;;;;;9.30;8.10;;;;;;;13.43;87.26;101571.59;671708;29;1407;-84
2021/09/03 01:23:44;;;;;;;10.45;8.50;;;;;;;13.41;87.46;101578.63;670965;29;4372;-84
2021/09/03 01:24:04;;;;;;;10.07;8.73;;;;;;;13.38;87.68;101568.13;670772;29;1355;-84
2021/09/03 01:24:25;;;;;;;10.20;8.85;;;;;;;13.32;88.08;101569.00;673075;29;1210;-84
2021/09/03 01:24:45;;;;;;;10.73;9.23;;;;;;;13.27;88.17;101576.84;673690;29;1253;-84
2021/09/03 01:25:07;;;;;;;11.33;9.03;;;;;;;13.26;87.53;101575.13;678111;29;1232;-84
2021/09/03 01:25:28;;;;;;;9.70;8.50;;;;;;;13.29;88.25;101571.59;676997;29;1049;-84
2021/09/03 01:25:48;;;;;;;9.60;8.60;;;;;;;13.34;87.96;101571.63;676036;29;2907;-84
2021/09/03 01:26:10;;;;;;;9.88;8.73;;;;;;;13.36;87.51;101572.50;676248;29;3192;-84
2021/09/03 01:26:31;;;;;;;9.75;8.48;;;;;;;13.37;87.49;101567.25;676774;29;1262;-84
2021/09/03 01:26:51;;;;;;;9.68;8.57;;;;;;;13.40;87.38;101564.63;677227;29;4752;-84
2021/09/03 01:27:12;;;;;;;10.30;8.80;;;;;;;13.41;87.07;101562.88;673818;29;1056;-84
2021/09/03 01:27:32;;;;;;;10.65;8.50;;;;;;;13.40;87.50;101574.25;676041;29;1282;-84
2021/09/03 01:27:53;;;;;;;11.13;9.03;;;;;;;13.38;87.34;101568.13;676025;29;1350;-84
2021/09/03 01:28:13;;;;;;;10.90;9.10;;;;;;;13.35;87.39;101573.38;675446;29;1178;-85
2021/09/03 01:28:33;;;;;;;10.00;8.50;;;;;;;13.33;87.41;101565.47;676476;29;1106;-85
2021/09/03 01:28:54;;;;;;;9.70;8.50;;;;;;;13.32;87.57;101573.34;676524;29;3821;-84
2021/09/03 01:29:14;;;;;;;10.27;8.80;;;;;;;13.27;87.63;101565.50;680842;29;1406;-84
2021/09/03 01:29:35;;;;;;;10.40;8.93;;;;;;;13.24;87.71;101570.75;681479;28;1323;-84
2021/09/03 01:29:55;;;;;;;10.70;8.80;;;;;;;13.20;88.34;101564.63;678701;29;4350;-85
2021/09/03 01:30:16;;;;;;;9.83;8.83;;;;;;;13.19;88.32;101568.13;675413;29;1594;-84
2021/09/03 01:30:36;;;;;;;10.85;8.88;;;;;;;13.19;88.05;101565.50;676002;29;964;-84
2021/09/03 01:30:57;;;;;;;11.15;8.65;;;;;;;13.19;88.12;101568.13;677764;29;1289;-84
2021/09/03 01:31:17;;;;;;;11.23;8.70;;;;;;;13.23;88.03;101564.59;676232;29;1269;-84
2021/09/03 01:31:41;;;;;;;11.03;8.90;;;;;;;13.21;88.24;101561.13;676894;29;1351;-84
2021/09/03 01:32:02;;;;;;;10.40;9.20;;;;;;;13.20;88.49;101563.75;673386;29;2789;-84
2021/09/03 01:32:22;;;;;;;10.10;8.67;;;;;;;13.20;88.31;101564.63;675424;29;1361;-84
2021/09/03 01:32:43;;;;;;;11.15;9.10;;;;;;;13.21;88.30;101561.13;680778;29;1692;-84
2021/09/03 01:33:04;;;;;;;9.93;8.93;;;;;;;13.25;88.11;101564.59;678164;29;4836;-84
2021/09/03 01:33:28;;;;;;;10.13;8.60;;;;;;;13.31;87.51;101558.50;670312;29;1238;-84
2021/09/03 01:33:49;;;;;;;9.55;8.48;;;;;;;13.33;87.65;101568.09;673775;29;1402;-84
2021/09/03 01:34:09;;;;;;;10.00;8.65;;;;;;;13.34;87.24;101572.47;675956;29;1423;-84
2021/09/03 01:34:29;;;;;;;10.10;9.00;;;;;;;13.35;87.48;101568.13;676971;29;1292;-84
2021/09/03 01:34:50;;;;;;;10.63;8.90;;;;;;;13.37;87.04;101566.38;680516;29;4672;-84
2021/09/03 01:35:11;;;;;;;10.10;9.00;;;;;;;13.40;86.82;101562.00;674914;29;1518;-84
2021/09/03 01:35:31;;;;;;;10.02;8.95;;;;;;;13.45;86.59;101554.09;675328;29;1379;-84
2021/09/03 01:35:52;;;;;;;10.00;8.60;;;;;;;13.44;86.86;101554.97;672959;29;4474;-84
2021/09/03 01:36:12;;;;;;;9.90;8.77;;;;;;;13.42;86.59;101560.25;673898;29;1226;-84
2021/09/03 01:36:33;;;;;;;10.40;8.77;;;;;;;13.40;86.91;101567.25;673749;29;1178;-84
2021/09/03 01:36:53;;;;;;;11.25;9.00;;;;;;;13.36;86.89;101572.50;678071;29;1064;-83
2021/09/03 01:37:14;;;;;;;11.15;9.07;;;;;;;13.28;87.89;101562.88;675503;29;1470;-84
2021/09/03 01:37:34;;;;;;;10.10;8.90;;;;;;;13.26;87.89;101564.63;675703;29;824;-84
2021/09/03 01:37:55;;;;;;;10.80;9.20;;;;;;;13.24;88.03;101591.75;673857;29;2944;-84
2021/09/03 01:38:16;;;;;;;10.43;9.00;;;;;;;13.24;88.00;101586.50;673225;29;1270;-84